sensor_id;sensor_type;location;lat;lon;timestamp;pressure;altitude;pressure_sealevel;temperature;humidity
46303;BME280;32029;51.358;5.628;2023-03-14T00:00:22;98772.78;;;14.31;79.72
46303;BME280;32029;51.358;5.628;2023-03-14T00:02:53;98762.84;;;14.30;78.69
46303;BME280;32029;51.358;5.628;2023-03-14T00:05:20;98773.56;;;14.26;77.53
46303;BME280;32029;51.358;5.628;2023-03-14T00:07:46;98763.31;;;14.21;77.71
46303;BME280;32029;51.358;5.628;2023-03-14T00:10:14;98769.34;;;14.18;77.08
46303;BME280;32029;51.358;5.628;2023-03-14T00:12:42;98783.09;;;14.13;77.29
46303;BME280;32029;51.358;5.628;2023-03-14T00:15:09;98784.44;;;14.11;76.94
46303;BME280;32029;51.358;5.628;2023-03-14T00:17:36;98784.44;;;14.11;76.17
46303;BME280;32029;51.358;5.628;2023-03-14T00:20:05;98772.19;;;13.96;76.07
46303;BME280;32029;51.358;5.628;2023-03-14T00:22:35;98773.06;;;14.02;75.97
46303;BME280;32029;51.358;5.628;2023-03-14T00:25:03;98725.75;;;13.61;75.56
46303;BME280;32029;51.358;5.628;2023-03-14T00:27:31;98794.53;;;14.00;75.49
46303;BME280;32029;51.358;5.628;2023-03-14T00:29:58;98792.88;;;13.99;75.15
46303;BME280;32029;51.358;5.628;2023-03-14T00:32:25;98785.88;;;13.91;74.92
46303;BME280;32029;51.358;5.628;2023-03-14T00:34:52;98788.13;;;13.72;74.93
46303;BME280;32029;51.358;5.628;2023-03-14T00:37:18;98783.53;;;13.78;74.82
46303;BME280;32029;51.358;5.628;2023-03-14T00:39:45;98800.84;;;13.73;74.83
46303;BME280;32029;51.358;5.628;2023-03-14T00:42:12;98779.50;;;13.64;75.02
46303;BME280;32029;51.358;5.628;2023-03-14T00:44:39;98792.50;;;13.68;74.75
46303;BME280;32029;51.358;5.628;2023-03-14T00:47:06;98763.28;;;13.45;74.65
46303;BME280;32029;51.358;5.628;2023-03-14T00:49:33;98801.81;;;13.62;74.60
46303;BME280;32029;51.358;5.628;2023-03-14T00:51:59;98807.22;;;13.57;73.92
46303;BME280;32029;51.358;5.628;2023-03-14T00:54:26;98794.34;;;13.41;73.95
46303;BME280;32029;51.358;5.628;2023-03-14T00:56:53;98805.50;;;13.51;73.53
46303;BME280;32029;51.358;5.628;2023-03-14T00:59:20;98787.25;;;13.45;73.30
46303;BME280;32029;51.358;5.628;2023-03-14T01:01:46;98810.44;;;13.49;73.43
46303;BME280;32029;51.358;5.628;2023-03-14T01:04:13;98788.28;;;13.39;73.40
46303;BME280;32029;51.358;5.628;2023-03-14T01:06:40;98807.19;;;13.52;73.29
46303;BME280;32029;51.358;5.628;2023-03-14T01:09:06;98798.06;;;13.52;73.22
46303;BME280;32029;51.358;5.628;2023-03-14T01:11:34;98788.72;;;13.53;73.29
46303;BME280;32029;51.358;5.628;2023-03-14T01:14:02;98800.66;;;13.58;73.00
46303;BME280;32029;51.358;5.628;2023-03-14T01:16:31;98797.31;;;13.56;72.95
46303;BME280;32029;51.358;5.628;2023-03-14T01:18:58;98785.53;;;13.39;73.05
46303;BME280;32029;51.358;5.628;2023-03-14T01:21:30;98795.59;;;13.50;73.18
46303;BME280;32029;51.358;5.628;2023-03-14T01:23:59;98791.16;;;13.49;73.14
46303;BME280;32029;51.358;5.628;2023-03-14T01:26:28;98783.94;;;13.43;73.54
46303;BME280;32029;51.358;5.628;2023-03-14T01:28:56;98781.16;;;13.43;73.54
46303;BME280;32029;51.358;5.628;2023-03-14T01:31:24;98775.66;;;13.43;73.50
46303;BME280;32029;51.358;5.628;2023-03-14T01:33:51;98767.13;;;13.44;73.80
46303;BME280;32029;51.358;5.628;2023-03-14T01:36:18;98758.31;;;13.42;73.92
46303;BME280;32029;51.358;5.628;2023-03-14T01:38:45;98761.44;;;13.51;74.09
46303;BME280;32029;51.358;5.628;2023-03-14T01:41:15;98764.19;;;13.51;74.35
46303;BME280;32029;51.358;5.628;2023-03-14T01:43:42;98764.25;;;13.56;74.46
46303;BME280;32029;51.358;5.628;2023-03-14T01:46:28;98745.78;;;13.57;74.63
46303;BME280;32029;51.358;5.628;2023-03-14T01:49:03;98763.09;;;13.52;75.07
46303;BME280;32029;51.358;5.628;2023-03-14T01:51:42;98751.50;;;13.50;75.66
46303;BME280;32029;51.358;5.628;2023-03-14T01:57:14;98739.44;;;13.56;76.41
46303;BME280;32029;51.358;5.628;2023-03-14T01:59:46;98729.97;;;13.47;76.67
46303;BME280;32029;51.358;5.628;2023-03-14T02:02:15;98741.81;;;13.47;77.36
46303;BME280;32029;51.358;5.628;2023-03-14T02:04:43;98742.00;;;13.41;77.84
46303;BME280;32029;51.358;5.628;2023-03-14T02:09:38;98742.47;;;13.33;79.08
46303;BME280;32029;51.358;5.628;2023-03-14T02:12:11;98738.88;;;13.32;79.47
46303;BME280;32029;51.358;5.628;2023-03-14T02:14:40;98745.22;;;13.33;79.90
46303;BME280;32029;51.358;5.628;2023-03-14T02:17:08;98740.84;;;13.37;79.88
46303;BME280;32029;51.358;5.628;2023-03-14T02:22:13;98750.22;;;13.36;79.98
46303;BME280;32029;51.358;5.628;2023-03-14T02:25:01;98739.75;;;13.38;80.17
46303;BME280;32029;51.358;5.628;2023-03-14T02:27:30;98729.19;;;13.30;79.82
46303;BME280;32029;51.358;5.628;2023-03-14T02:30:01;98736.75;;;13.39;79.83
46303;BME280;32029;51.358;5.628;2023-03-14T02:32:31;98741.00;;;13.47;80.09
46303;BME280;32029;51.358;5.628;2023-03-14T02:35:01;98736.97;;;13.55;79.57
46303;BME280;32029;51.358;5.628;2023-03-14T02:37:38;98744.94;;;13.56;79.13
46303;BME280;32029;51.358;5.628;2023-03-14T02:40:08;98736.13;;;13.54;79.02
46303;BME280;32029;51.358;5.628;2023-03-14T02:42:35;98729.97;;;13.47;79.16
46303;BME280;32029;51.358;5.628;2023-03-14T02:47:37;98737.00;;;13.38;79.53
46303;BME280;32029;51.358;5.628;2023-03-14T02:50:11;98694.03;;;13.15;79.43
46303;BME280;32029;51.358;5.628;2023-03-14T02:52:38;98685.44;;;13.11;79.37
46303;BME280;32029;51.358;5.628;2023-03-14T02:55:05;98718.44;;;13.28;79.63
46303;BME280;32029;51.358;5.628;2023-03-14T02:57:32;98714.34;;;13.31;79.58
46303;BME280;32029;51.358;5.628;2023-03-14T03:00:00;98706.69;;;13.38;79.24
46303;BME280;32029;51.358;5.628;2023-03-14T03:02:27;98718.31;;;13.40;79.07
46303;BME280;32029;51.358;5.628;2023-03-14T03:04:54;98714.97;;;13.38;79.03
46303;BME280;32029;51.358;5.628;2023-03-14T03:07:21;98716.00;;;13.32;79.18
46303;BME280;32029;51.358;5.628;2023-03-14T03:09:48;98721.47;;;13.27;79.38
46303;BME280;32029;51.358;5.628;2023-03-14T03:12:15;98717.75;;;13.21;79.56
46303;BME280;32029;51.358;5.628;2023-03-14T03:14:42;98724.28;;;13.32;79.70
46303;BME280;32029;51.358;5.628;2023-03-14T03:17:08;98716.00;;;13.32;79.05
46303;BME280;32029;51.358;5.628;2023-03-14T03:19:35;98721.19;;;13.28;79.38
46303;BME280;32029;51.358;5.628;2023-03-14T03:22:02;98710.00;;;13.18;79.12
46303;BME280;32029;51.358;5.628;2023-03-14T03:24:28;98724.72;;;13.23;79.29
46303;BME280;32029;51.358;5.628;2023-03-14T03:26:55;98708.03;;;13.13;79.44
46303;BME280;32029;51.358;5.628;2023-03-14T03:29:22;98725.28;;;13.26;79.28
46303;BME280;32029;51.358;5.628;2023-03-14T03:31:49;98722.53;;;13.26;79.26
46303;BME280;32029;51.358;5.628;2023-03-14T03:34:15;98712.75;;;13.35;78.90
46303;BME280;32029;51.358;5.628;2023-03-14T03:36:42;98701.19;;;13.38;78.85
46303;BME280;32029;51.358;5.628;2023-03-14T03:39:09;98697.88;;;13.36;78.22
46303;BME280;32029;51.358;5.628;2023-03-14T03:41:36;98704.41;;;13.30;78.30
46303;BME280;32029;51.358;5.628;2023-03-14T03:44:03;98694.44;;;13.23;78.28
46303;BME280;32029;51.358;5.628;2023-03-14T03:46:29;98682.53;;;13.01;78.56
46303;BME280;32029;51.358;5.628;2023-03-14T03:48:57;98702.97;;;13.05;78.46
46303;BME280;32029;51.358;5.628;2023-03-14T03:51:25;98690.41;;;12.92;78.84
46303;BME280;32029;51.358;5.628;2023-03-14T03:53:52;98711.41;;;12.98;78.72
46303;BME280;32029;51.358;5.628;2023-03-14T03:56:19;98706.09;;;12.92;79.09
46303;BME280;32029;51.358;5.628;2023-03-14T03:58:46;98695.09;;;12.75;80.34
46303;BME280;32029;51.358;5.628;2023-03-14T04:01:13;98698.88;;;12.69;81.60
46303;BME280;32029;51.358;5.628;2023-03-14T04:03:39;98707.91;;;12.64;82.72
46303;BME280;32029;51.358;5.628;2023-03-14T04:06:12;98625.91;;;12.11;83.49
46303;BME280;32029;51.358;5.628;2023-03-14T04:08:39;98709.66;;;12.54;84.33
46303;BME280;32029;51.358;5.628;2023-03-14T04:11:07;98704.97;;;12.54;84.96
46303;BME280;32029;51.358;5.628;2023-03-14T04:13:34;98702.66;;;12.46;85.17
46303;BME280;32029;51.358;5.628;2023-03-14T04:16:00;98690.09;;;12.33;86.08
46303;BME280;32029;51.358;5.628;2023-03-14T04:18:27;98701.97;;;12.39;86.02
46303;BME280;32029;51.358;5.628;2023-03-14T04:20:57;98708.47;;;12.49;86.57
46303;BME280;32029;51.358;5.628;2023-03-14T04:23:24;98701.00;;;12.45;87.34
46303;BME280;32029;51.358;5.628;2023-03-14T04:25:52;98686.50;;;12.33;87.88
46303;BME280;32029;51.358;5.628;2023-03-14T04:28:19;98694.06;;;12.42;88.05
46303;BME280;32029;51.358;5.628;2023-03-14T04:30:46;98694.31;;;12.41;88.32
46303;BME280;32029;51.358;5.628;2023-03-14T04:33:13;98686.16;;;12.46;88.54
46303;BME280;32029;51.358;5.628;2023-03-14T04:35:44;98672.97;;;12.48;88.37
46303;BME280;32029;51.358;5.628;2023-03-14T04:38:12;98675.94;;;12.63;88.08
46303;BME280;32029;51.358;5.628;2023-03-14T04:40:40;98654.31;;;12.50;88.11
46303;BME280;32029;51.358;5.628;2023-03-14T04:43:08;98680.88;;;12.61;88.24
46303;BME280;32029;51.358;5.628;2023-03-14T04:45:36;98681.03;;;12.55;88.71
46303;BME280;32029;51.358;5.628;2023-03-14T04:48:03;98665.22;;;12.45;89.10
46303;BME280;32029;51.358;5.628;2023-03-14T04:50:29;98664.63;;;12.43;89.52
46303;BME280;32029;51.358;5.628;2023-03-14T04:52:56;98682.81;;;12.61;89.48
46303;BME280;32029;51.358;5.628;2023-03-14T04:55:23;98666.28;;;12.61;89.73
46303;BME280;32029;51.358;5.628;2023-03-14T04:57:49;98676.81;;;12.64;89.94
46303;BME280;32029;51.358;5.628;2023-03-14T05:00:16;98679.13;;;12.72;89.80
46303;BME280;32029;51.358;5.628;2023-03-14T05:02:46;98669.28;;;12.76;90.42
46303;BME280;32029;51.358;5.628;2023-03-14T05:05:13;98672.09;;;12.81;90.21
46303;BME280;32029;51.358;5.628;2023-03-14T05:07:39;98660.25;;;12.81;90.06
46303;BME280;32029;51.358;5.628;2023-03-14T05:10:06;98684.75;;;12.82;90.37
46303;BME280;32029;51.358;5.628;2023-03-14T05:12:33;98649.91;;;12.71;90.48
46303;BME280;32029;51.358;5.628;2023-03-14T05:15:00;98658.44;;;12.69;90.88
46303;BME280;32029;51.358;5.628;2023-03-14T05:17:27;98638.06;;;12.48;91.58
46303;BME280;32029;51.358;5.628;2023-03-14T05:19:53;98658.88;;;12.61;91.80
46303;BME280;32029;51.358;5.628;2023-03-14T05:22:20;98654.19;;;12.62;92.20
46303;BME280;32029;51.358;5.628;2023-03-14T05:24:47;98659.44;;;12.63;92.38
46303;BME280;32029;51.358;5.628;2023-03-14T05:27:14;98647.09;;;12.66;92.60
46303;BME280;32029;51.358;5.628;2023-03-14T05:29:40;98632.94;;;12.57;92.82
46303;BME280;32029;51.358;5.628;2023-03-14T05:32:07;98656.69;;;12.63;92.95
46303;BME280;32029;51.358;5.628;2023-03-14T05:34:34;98625.31;;;12.42;93.39
46303;BME280;32029;51.358;5.628;2023-03-14T05:37:00;98655.97;;;12.51;93.81
46303;BME280;32029;51.358;5.628;2023-03-14T05:39:27;98650.94;;;12.48;94.47
46303;BME280;32029;51.358;5.628;2023-03-14T05:41:54;98655.63;;;12.47;94.85
46303;BME280;32029;51.358;5.628;2023-03-14T05:44:22;98630.97;;;12.36;94.77
46303;BME280;32029;51.358;5.628;2023-03-14T05:46:48;98651.06;;;12.53;95.23
46303;BME280;32029;51.358;5.628;2023-03-14T05:49:15;98649.63;;;12.50;95.38
46303;BME280;32029;51.358;5.628;2023-03-14T05:51:42;98642.19;;;12.51;95.56
46303;BME280;32029;51.358;5.628;2023-03-14T05:54:09;98648.78;;;12.50;95.74
46303;BME280;32029;51.358;5.628;2023-03-14T05:56:35;98644.94;;;12.51;95.61
46303;BME280;32029;51.358;5.628;2023-03-14T05:59:02;98641.97;;;12.53;96.33
46303;BME280;32029;51.358;5.628;2023-03-14T06:01:29;98640.13;;;12.58;95.99
46303;BME280;32029;51.358;5.628;2023-03-14T06:03:56;98630.75;;;12.59;96.29
46303;BME280;32029;51.358;5.628;2023-03-14T06:06:23;98635.44;;;12.59;96.28
46303;BME280;32029;51.358;5.628;2023-03-14T06:08:49;98622.63;;;12.47;96.47
46303;BME280;32029;51.358;5.628;2023-03-14T06:11:16;98629.38;;;12.57;96.50
46303;BME280;32029;51.358;5.628;2023-03-14T06:13:43;98621.78;;;12.47;96.91
46303;BME280;32029;51.358;5.628;2023-03-14T06:16:09;98642.38;;;12.61;96.01
46303;BME280;32029;51.358;5.628;2023-03-14T06:18:36;98643.13;;;12.57;96.43
46303;BME280;32029;51.358;5.628;2023-03-14T06:21:03;98642.31;;;12.56;96.54
46303;BME280;32029;51.358;5.628;2023-03-14T06:23:30;98583.75;;;12.22;96.13
46303;BME280;32029;51.358;5.628;2023-03-14T06:25:58;98616.47;;;12.40;95.79
46303;BME280;32029;51.358;5.628;2023-03-14T06:28:25;98641.78;;;12.59;95.93
46303;BME280;32029;51.358;5.628;2023-03-14T06:30:52;98623.44;;;12.48;96.53
46303;BME280;32029;51.358;5.628;2023-03-14T06:33:19;98650.34;;;12.63;96.83
46303;BME280;32029;51.358;5.628;2023-03-14T06:35:46;98651.50;;;12.67;97.23
46303;BME280;32029;51.358;5.628;2023-03-14T06:38:12;98653.19;;;12.68;97.20
46303;BME280;32029;51.358;5.628;2023-03-14T06:40:39;98654.53;;;12.65;97.33
46303;BME280;32029;51.358;5.628;2023-03-14T06:43:06;98653.94;;;12.63;97.56
46303;BME280;32029;51.358;5.628;2023-03-14T06:45:32;98655.63;;;12.64;97.52
46303;BME280;32029;51.358;5.628;2023-03-14T06:47:59;98654.78;;;12.64;97.47
46303;BME280;32029;51.358;5.628;2023-03-14T06:50:26;98659.97;;;12.60;97.42
46303;BME280;32029;51.358;5.628;2023-03-14T06:52:52;98643.56;;;12.48;97.79
46303;BME280;32029;51.358;5.628;2023-03-14T06:55:19;98656.06;;;12.56;97.84
46303;BME280;32029;51.358;5.628;2023-03-14T06:57:47;98636.63;;;12.46;97.76
46303;BME280;32029;51.358;5.628;2023-03-14T07:00:14;98663.59;;;12.66;97.99
46303;BME280;32029;51.358;5.628;2023-03-14T07:02:40;98652.09;;;12.69;97.50
46303;BME280;32029;51.358;5.628;2023-03-14T07:05:08;98669.66;;;12.85;97.70
46303;BME280;32029;51.358;5.628;2023-03-14T07:07:36;98673.72;;;12.99;97.42
46303;BME280;32029;51.358;5.628;2023-03-14T07:10:03;98673.28;;;13.07;96.79
46303;BME280;32029;51.358;5.628;2023-03-14T07:12:30;98681.00;;;13.10;96.23
46303;BME280;32029;51.358;5.628;2023-03-14T07:14:57;98651.03;;;12.92;96.31
46303;BME280;32029;51.358;5.628;2023-03-14T07:17:23;98677.19;;;13.11;96.03
46303;BME280;32029;51.358;5.628;2023-03-14T07:19:50;98691.44;;;13.08;96.63
46303;BME280;32029;51.358;5.628;2023-03-14T07:22:17;98676.53;;;13.04;96.73
46303;BME280;32029;51.358;5.628;2023-03-14T07:24:43;98684.91;;;13.14;96.59
46303;BME280;32029;51.358;5.628;2023-03-14T07:27:10;98695.34;;;13.12;96.12
46303;BME280;32029;51.358;5.628;2023-03-14T07:29:37;98695.34;;;13.12;95.99
46303;BME280;32029;51.358;5.628;2023-03-14T07:32:03;98691.50;;;13.13;95.39
46303;BME280;32029;51.358;5.628;2023-03-14T07:34:30;98696.34;;;13.06;95.57
46303;BME280;32029;51.358;5.628;2023-03-14T07:36:57;98706.41;;;13.17;95.51
46303;BME280;32029;51.358;5.628;2023-03-14T07:39:23;98711.94;;;13.17;95.06
46303;BME280;32029;51.358;5.628;2023-03-14T07:41:50;98701.69;;;13.13;95.42
46303;BME280;32029;51.358;5.628;2023-03-14T07:44:17;98719.03;;;13.13;95.48
46303;BME280;32029;51.358;5.628;2023-03-14T07:46:43;98687.88;;;12.91;96.14
46303;BME280;32029;51.358;5.628;2023-03-14T07:49:10;98723.06;;;13.06;96.81
46303;BME280;32029;51.358;5.628;2023-03-14T07:51:37;98747.28;;;13.04;97.41
46303;BME280;32029;51.358;5.628;2023-03-14T07:54:03;98755.22;;;13.00;98.63
46303;BME280;32029;51.358;5.628;2023-03-14T07:56:30;98814.22;;;12.87;99.28
46303;BME280;32029;51.358;5.628;2023-03-14T07:58:57;98830.53;;;12.60;96.45
46303;BME280;32029;51.358;5.628;2023-03-14T08:01:24;98867.78;;;12.22;94.54
46303;BME280;32029;51.358;5.628;2023-03-14T08:03:51;98839.25;;;11.71;95.94
46303;BME280;32029;51.358;5.628;2023-03-14T08:06:18;98825.59;;;11.36;96.17
46303;BME280;32029;51.358;5.628;2023-03-14T08:08:45;98847.94;;;11.16;96.98
46303;BME280;32029;51.358;5.628;2023-03-14T08:11:11;98873.09;;;11.01;98.14
46303;BME280;32029;51.358;5.628;2023-03-14T08:13:38;98871.41;;;10.77;99.58
46303;BME280;32029;51.358;5.628;2023-03-14T08:16:06;98890.34;;;10.67;100.00
46303;BME280;32029;51.358;5.628;2023-03-14T08:18:33;98890.25;;;10.43;100.00
46303;BME280;32029;51.358;5.628;2023-03-14T08:21:00;98909.50;;;10.55;100.00
46303;BME280;32029;51.358;5.628;2023-03-14T08:23:26;98924.63;;;10.46;100.00
46303;BME280;32029;51.358;5.628;2023-03-14T08:25:53;98930.56;;;10.43;100.00
46303;BME280;32029;51.358;5.628;2023-03-14T08:28:20;98934.84;;;10.39;100.00
46303;BME280;32029;51.358;5.628;2023-03-14T08:30:47;98947.47;;;10.40;100.00
46303;BME280;32029;51.358;5.628;2023-03-14T08:33:13;98956.31;;;10.42;100.00
46303;BME280;32029;51.358;5.628;2023-03-14T08:35:41;98967.13;;;10.37;100.00
46303;BME280;32029;51.358;5.628;2023-03-14T08:38:08;98987.75;;;10.39;100.00
46303;BME280;32029;51.358;5.628;2023-03-14T08:40:35;98994.91;;;10.40;100.00
46303;BME280;32029;51.358;5.628;2023-03-14T08:43:02;99009.78;;;10.33;100.00
46303;BME280;32029;51.358;5.628;2023-03-14T08:45:29;99024.31;;;10.33;100.00
46303;BME280;32029;51.358;5.628;2023-03-14T08:47:57;99018.63;;;10.35;100.00
46303;BME280;32029;51.358;5.628;2023-03-14T08:50:24;99041.13;;;10.37;100.00
46303;BME280;32029;51.358;5.628;2023-03-14T08:52:51;99041.59;;;10.34;100.00
46303;BME280;32029;51.358;5.628;2023-03-14T08:55:18;99043.75;;;10.32;100.00
46303;BME280;32029;51.358;5.628;2023-03-14T08:57:45;99056.47;;;10.26;100.00
46303;BME280;32029;51.358;5.628;2023-03-14T09:00:12;99050.34;;;10.24;100.00
46303;BME280;32029;51.358;5.628;2023-03-14T09:02:42;99040.81;;;10.08;100.00
46303;BME280;32029;51.358;5.628;2023-03-14T09:05:10;99070.50;;;10.11;100.00
46303;BME280;32029;51.358;5.628;2023-03-14T09:07:38;99087.41;;;10.08;100.00
46303;BME280;32029;51.358;5.628;2023-03-14T09:10:06;99066.06;;;9.92;100.00
46303;BME280;32029;51.358;5.628;2023-03-14T09:12:33;99098.50;;;9.95;100.00
46303;BME280;32029;51.358;5.628;2023-03-14T09:15:00;99101.78;;;10.03;100.00
46303;BME280;32029;51.358;5.628;2023-03-14T09:17:27;99112.34;;;10.00;100.00
46303;BME280;32029;51.358;5.628;2023-03-14T09:19:54;99135.06;;;10.07;100.00
46303;BME280;32029;51.358;5.628;2023-03-14T09:22:20;99130.63;;;10.06;100.00
46303;BME280;32029;51.358;5.628;2023-03-14T09:24:47;99149.31;;;10.16;100.00
46303;BME280;32029;51.358;5.628;2023-03-14T09:27:14;99141.81;;;10.04;100.00
46303;BME280;32029;51.358;5.628;2023-03-14T09:29:41;99156.50;;;10.10;100.00
46303;BME280;32029;51.358;5.628;2023-03-14T09:32:08;99177.22;;;10.06;100.00
46303;BME280;32029;51.358;5.628;2023-03-14T09:34:35;99175.09;;;10.08;100.00
46303;BME280;32029;51.358;5.628;2023-03-14T09:37:02;99189.19;;;10.12;100.00
46303;BME280;32029;51.358;5.628;2023-03-14T09:39:28;99199.03;;;10.19;100.00
46303;BME280;32029;51.358;5.628;2023-03-14T09:41:56;99209.13;;;10.25;100.00
46303;BME280;32029;51.358;5.628;2023-03-14T09:44:30;99208.22;;;10.32;100.00
46303;BME280;32029;51.358;5.628;2023-03-14T09:47:02;99221.06;;;10.38;100.00
46303;BME280;32029;51.358;5.628;2023-03-14T09:49:32;99223.16;;;10.36;100.00
46303;BME280;32029;51.358;5.628;2023-03-14T09:52:02;99159.53;;;10.02;100.00
46303;BME280;32029;51.358;5.628;2023-03-14T09:54:50;99236.31;;;10.52;100.00
46303;BME280;32029;51.358;5.628;2023-03-14T09:57:18;99224.94;;;10.48;100.00
46303;BME280;32029;51.358;5.628;2023-03-14T09:59:48;99260.94;;;10.59;100.00
46303;BME280;32029;51.358;5.628;2023-03-14T10:02:22;99252.84;;;10.45;100.00
46303;BME280;32029;51.358;5.628;2023-03-14T10:04:51;99293.84;;;10.59;100.00
46303;BME280;32029;51.358;5.628;2023-03-14T10:07:23;99301.28;;;10.51;100.00
46303;BME280;32029;51.358;5.628;2023-03-14T10:09:51;99329.66;;;10.39;100.00
46303;BME280;32029;51.358;5.628;2023-03-14T10:12:19;99353.38;;;10.26;100.00
46303;BME280;32029;51.358;5.628;2023-03-14T10:14:49;99364.38;;;10.13;100.00
46303;BME280;32029;51.358;5.628;2023-03-14T10:17:18;99366.13;;;10.01;100.00
46303;BME280;32029;51.358;5.628;2023-03-14T10:19:57;99428.56;;;9.99;100.00
46303;BME280;32029;51.358;5.628;2023-03-14T10:22:29;99401.63;;;9.82;100.00
46303;BME280;32029;51.358;5.628;2023-03-14T10:25:06;99418.75;;;9.65;100.00
46303;BME280;32029;51.358;5.628;2023-03-14T10:27:35;99427.19;;;9.63;100.00
46303;BME280;32029;51.358;5.628;2023-03-14T10:30:05;99438.34;;;9.62;100.00
46303;BME280;32029;51.358;5.628;2023-03-14T10:32:36;99478.84;;;9.53;100.00
46303;BME280;32029;51.358;5.628;2023-03-14T10:38:13;99470.41;;;9.35;100.00
46303;BME280;32029;51.358;5.628;2023-03-14T10:40:46;99484.56;;;9.25;100.00
46303;BME280;32029;51.358;5.628;2023-03-14T10:43:18;99507.50;;;9.30;100.00
46303;BME280;32029;51.358;5.628;2023-03-14T10:45:58;99520.09;;;9.31;100.00
46303;BME280;32029;51.358;5.628;2023-03-14T10:48:33;99536.13;;;9.35;100.00
46303;BME280;32029;51.358;5.628;2023-03-14T10:51:07;99455.69;;;8.96;100.00
46303;BME280;32029;51.358;5.628;2023-03-14T10:53:40;99540.75;;;9.47;100.00
46303;BME280;32029;51.358;5.628;2023-03-14T10:56:13;99572.34;;;9.50;100.00
46303;BME280;32029;51.358;5.628;2023-03-14T10:58:43;99570.03;;;9.47;100.00
46303;BME280;32029;51.358;5.628;2023-03-14T11:03:43;99582.69;;;9.48;100.00
46303;BME280;32029;51.358;5.628;2023-03-14T11:07:01;99588.16;;;9.41;100.00
46303;BME280;32029;51.358;5.628;2023-03-14T11:09:41;99620.34;;;9.26;100.00
46303;BME280;32029;51.358;5.628;2023-03-14T11:12:51;99614.00;;;9.12;100.00
46303;BME280;32029;51.358;5.628;2023-03-14T11:15:45;99603.88;;;8.99;100.00
46303;BME280;32029;51.358;5.628;2023-03-14T11:18:39;99633.81;;;9.21;100.00
46303;BME280;32029;51.358;5.628;2023-03-14T11:21:37;99650.66;;;9.31;100.00
46303;BME280;32029;51.358;5.628;2023-03-14T11:27:07;99635.75;;;9.33;100.00
46303;BME280;32029;51.358;5.628;2023-03-14T11:29:52;99668.63;;;9.60;100.00
46303;BME280;32029;51.358;5.628;2023-03-14T11:32:50;99671.38;;;9.73;100.00
46303;BME280;32029;51.358;5.628;2023-03-14T11:35:26;99673.72;;;9.76;100.00
46303;BME280;32029;51.358;5.628;2023-03-14T11:38:13;99692.03;;;9.82;100.00
46303;BME280;32029;51.358;5.628;2023-03-14T11:40:41;99695.63;;;9.83;100.00
46303;BME280;32029;51.358;5.628;2023-03-14T11:45:37;99707.63;;;9.89;100.00
46303;BME280;32029;51.358;5.628;2023-03-14T11:50:59;99723.66;;;10.12;100.00
46303;BME280;32029;51.358;5.628;2023-03-14T11:56:55;99770.09;;;10.26;100.00
46303;BME280;32029;51.358;5.628;2023-03-14T11:59:45;99753.84;;;10.18;100.00
46303;BME280;32029;51.358;5.628;2023-03-14T12:10:45;99833.22;;;8.89;100.00
46303;BME280;32029;51.358;5.628;2023-03-14T12:13:14;99828.50;;;8.76;100.00
46303;BME280;32029;51.358;5.628;2023-03-14T12:15:57;99828.41;;;8.63;100.00
46303;BME280;32029;51.358;5.628;2023-03-14T12:18:31;99820.41;;;8.62;100.00
46303;BME280;32029;51.358;5.628;2023-03-14T12:21:01;99827.38;;;8.64;100.00
46303;BME280;32029;51.358;5.628;2023-03-14T12:28:43;99842.91;;;8.92;100.00
46303;BME280;32029;51.358;5.628;2023-03-14T12:39:27;99891.97;;;9.28;100.00
46303;BME280;32029;51.358;5.628;2023-03-14T12:44:44;99892.84;;;9.28;100.00
46303;BME280;32029;51.358;5.628;2023-03-14T12:49:49;99879.63;;;9.04;100.00
46303;BME280;32029;51.358;5.628;2023-03-14T12:52:21;99888.03;;;9.02;100.00
46303;BME280;32029;51.358;5.628;2023-03-14T12:54:59;99895.16;;;8.97;100.00
46303;BME280;32029;51.358;5.628;2023-03-14T13:00:34;99908.19;;;8.95;100.00
46303;BME280;32029;51.358;5.628;2023-03-14T13:03:15;99911.97;;;8.94;100.00
46303;BME280;32029;51.358;5.628;2023-03-14T13:05:57;99906.91;;;8.91;100.00
46303;BME280;32029;51.358;5.628;2023-03-14T13:08:42;99909.50;;;8.99;100.00
46303;BME280;32029;51.358;5.628;2023-03-14T13:11:15;99920.59;;;8.91;100.00
46303;BME280;32029;51.358;5.628;2023-03-14T13:13:48;99919.69;;;8.83;100.00
46303;BME280;32029;51.358;5.628;2023-03-14T13:16:19;99930.41;;;8.85;100.00
46303;BME280;32029;51.358;5.628;2023-03-14T13:18:49;99948.47;;;8.79;100.00
46303;BME280;32029;51.358;5.628;2023-03-14T13:21:18;99939.59;;;8.77;100.00
46303;BME280;32029;51.358;5.628;2023-03-14T13:24:03;99933.75;;;8.80;100.00
46303;BME280;32029;51.358;5.628;2023-03-14T13:26:42;99941.25;;;8.72;100.00
46303;BME280;32029;51.358;5.628;2023-03-14T13:29:19;99953.41;;;8.69;100.00
46303;BME280;32029;51.358;5.628;2023-03-14T13:31:49;99970.25;;;8.66;100.00
46303;BME280;32029;51.358;5.628;2023-03-14T13:34:16;99941.97;;;8.59;100.00
46303;BME280;32029;51.358;5.628;2023-03-14T13:36:43;99941.44;;;8.49;100.00
46303;BME280;32029;51.358;5.628;2023-03-14T13:39:16;99967.44;;;8.59;100.00
46303;BME280;32029;51.358;5.628;2023-03-14T13:41:45;99978.16;;;8.61;100.00
46303;BME280;32029;51.358;5.628;2023-03-14T13:44:39;99984.94;;;8.65;100.00
46303;BME280;32029;51.358;5.628;2023-03-14T13:47:14;99944.44;;;8.54;100.00
46303;BME280;32029;51.358;5.628;2023-03-14T13:49:43;99977.78;;;8.64;100.00
46303;BME280;32029;51.358;5.628;2023-03-14T13:54:53;99980.72;;;8.63;96.41
46303;BME280;32029;51.358;5.628;2023-03-14T13:57:19;100001.94;;;8.61;94.52
46303;BME280;32029;51.358;5.628;2023-03-14T13:59:59;100017.13;;;8.63;89.77
46303;BME280;32029;51.358;5.628;2023-03-14T14:02:27;100006.34;;;8.62;90.67
46303;BME280;32029;51.358;5.628;2023-03-14T14:04:55;100021.16;;;8.67;88.90
46303;BME280;32029;51.358;5.628;2023-03-14T14:07:22;100022.25;;;8.73;89.63
46303;BME280;32029;51.358;5.628;2023-03-14T14:09:51;100037.06;;;8.78;87.68